sensor_id;sensor_type;location;lat;lon;timestamp;P1;durP1;ratioP1;P2;durP2;ratioP2
2564;SDS011;1292;48.020;7.822;2023-03-07T06:45:18;9.30;;;6.40;;
2564;SDS011;1292;48.020;7.822;2023-03-07T06:47:45;8.17;;;6.70;;
2564;SDS011;1292;48.020;7.822;2023-03-07T06:50:11;10.07;;;7.30;;
2564;SDS011;1292;48.020;7.822;2023-03-07T06:52:38;8.07;;;6.40;;
2564;SDS011;1292;48.020;7.822;2023-03-07T06:55:06;9.80;;;6.87;;
2564;SDS011;1292;48.020;7.822;2023-03-07T06:57:34;10.40;;;6.67;;
2564;SDS011;1292;48.020;7.822;2023-03-07T07:00:01;9.70;;;6.37;;
2564;SDS011;1292;48.020;7.822;2023-03-07T07:02:30;16.73;;;7.00;;
2564;SDS011;1292;48.020;7.822;2023-03-07T07:04:57;7.80;;;6.27;;
2564;SDS011;1292;48.020;7.822;2023-03-07T07:07:24;9.23;;;6.70;;
2564;SDS011;1292;48.020;7.822;2023-03-07T07:09:51;9.73;;;6.37;;
2564;SDS011;1292;48.020;7.822;2023-03-07T07:12:18;10.13;;;7.00;;
2564;SDS011;1292;48.020;7.822;2023-03-07T07:14:45;11.57;;;7.13;;
2564;SDS011;1292;48.020;7.822;2023-03-07T07:17:12;9.60;;;6.77;;
2564;SDS011;1292;48.020;7.822;2023-03-07T07:19:40;10.67;;;6.50;;
2564;SDS011;1292;48.020;7.822;2023-03-07T07:22:07;11.80;;;6.17;;
2564;SDS011;1292;48.020;7.822;2023-03-07T07:24:36;10.43;;;6.10;;
2564;SDS011;1292;48.020;7.822;2023-03-07T07:27:03;8.70;;;5.70;;
2564;SDS011;1292;48.020;7.822;2023-03-07T07:29:30;8.20;;;5.97;;
2564;SDS011;1292;48.020;7.822;2023-03-07T07:31:57;7.40;;;5.30;;
2564;SDS011;1292;48.020;7.822;2023-03-07T07:34:24;9.37;;;6.13;;
2564;SDS011;1292;48.020;7.822;2023-03-07T07:36:52;11.57;;;6.03;;
2564;SDS011;1292;48.020;7.822;2023-03-07T07:39:19;8.50;;;5.43;;
2564;SDS011;1292;48.020;7.822;2023-03-07T07:41:47;9.40;;;6.60;;
2564;SDS011;1292;48.020;7.822;2023-03-07T07:44:14;9.40;;;5.70;;
2564;SDS011;1292;48.020;7.822;2023-03-07T07:46:40;8.83;;;6.13;;
2564;SDS011;1292;48.020;7.822;2023-03-07T07:49:08;7.17;;;5.37;;
2564;SDS011;1292;48.020;7.822;2023-03-07T07:51:34;12.40;;;5.77;;
2564;SDS011;1292;48.020;7.822;2023-03-07T07:54:03;6.60;;;5.20;;
2564;SDS011;1292;48.020;7.822;2023-03-07T07:56:29;10.17;;;7.13;;
2564;SDS011;1292;48.020;7.822;2023-03-07T07:58:56;7.93;;;5.10;;
2564;SDS011;1292;48.020;7.822;2023-03-07T08:01:24;7.47;;;5.70;;
2564;SDS011;1292;48.020;7.822;2023-03-07T08:03:51;7.70;;;5.60;;
2564;SDS011;1292;48.020;7.822;2023-03-07T08:06:18;7.63;;;5.17;;
2564;SDS011;1292;48.020;7.822;2023-03-07T08:08:45;11.77;;;6.67;;
2564;SDS011;1292;48.020;7.822;2023-03-07T08:11:14;8.27;;;6.60;;
2564;SDS011;1292;48.020;7.822;2023-03-07T08:13:42;11.50;;;6.10;;
2564;SDS011;1292;48.020;7.822;2023-03-07T08:16:10;11.47;;;6.27;;
2564;SDS011;1292;48.020;7.822;2023-03-07T08:18:39;10.67;;;5.97;;
2564;SDS011;1292;48.020;7.822;2023-03-07T08:21:06;10.40;;;5.93;;
2564;SDS011;1292;48.020;7.822;2023-03-07T08:23:33;8.50;;;6.30;;
2564;SDS011;1292;48.020;7.822;2023-03-07T08:26:02;9.67;;;5.83;;
2564;SDS011;1292;48.020;7.822;2023-03-07T08:28:32;9.73;;;6.63;;
2564;SDS011;1292;48.020;7.822;2023-03-07T08:31:04;8.30;;;5.93;;
2564;SDS011;1292;48.020;7.822;2023-03-07T08:33:32;8.57;;;6.30;;
2564;SDS011;1292;48.020;7.822;2023-03-07T08:35:59;9.77;;;5.40;;
2564;SDS011;1292;48.020;7.822;2023-03-07T08:38:29;11.27;;;6.13;;
2564;SDS011;1292;48.020;7.822;2023-03-07T08:40:58;6.40;;;5.27;;
2564;SDS011;1292;48.020;7.822;2023-03-07T08:43:27;7.97;;;5.57;;
2564;SDS011;1292;48.020;7.822;2023-03-07T08:45:56;8.90;;;6.10;;
2564;SDS011;1292;48.020;7.822;2023-03-07T08:48:24;10.20;;;6.60;;
2564;SDS011;1292;48.020;7.822;2023-03-07T08:50:51;11.60;;;7.17;;
2564;SDS011;1292;48.020;7.822;2023-03-07T08:53:21;7.90;;;5.63;;
2564;SDS011;1292;48.020;7.822;2023-03-07T08:55:49;10.50;;;6.67;;
2564;SDS011;1292;48.020;7.822;2023-03-07T08:58:20;8.27;;;6.47;;
2564;SDS011;1292;48.020;7.822;2023-03-07T09:00:47;7.70;;;6.13;;
2564;SDS011;1292;48.020;7.822;2023-03-07T09:03:15;8.37;;;6.10;;
2564;SDS011;1292;48.020;7.822;2023-03-07T09:05:42;10.37;;;6.83;;
2564;SDS011;1292;48.020;7.822;2023-03-07T09:08:10;11.40;;;5.90;;
2564;SDS011;1292;48.020;7.822;2023-03-07T09:10:37;12.17;;;7.53;;
2564;SDS011;1292;48.020;7.822;2023-03-07T09:13:04;14.13;;;6.90;;
2564;SDS011;1292;48.020;7.822;2023-03-07T09:15:31;11.07;;;7.07;;
2564;SDS011;1292;48.020;7.822;2023-03-07T09:17:58;14.27;;;7.47;;
2564;SDS011;1292;48.020;7.822;2023-03-07T09:20:28;9.20;;;6.80;;
2564;SDS011;1292;48.020;7.822;2023-03-07T09:22:58;10.90;;;7.33;;
2564;SDS011;1292;48.020;7.822;2023-03-07T09:25:26;10.53;;;6.63;;
2564;SDS011;1292;48.020;7.822;2023-03-07T09:27:54;10.37;;;8.60;;
2564;SDS011;1292;48.020;7.822;2023-03-07T09:30:21;15.23;;;6.90;;
2564;SDS011;1292;48.020;7.822;2023-03-07T09:32:52;9.30;;;6.77;;
2564;SDS011;1292;48.020;7.822;2023-03-07T09:35:19;9.90;;;6.53;;
2564;SDS011;1292;48.020;7.822;2023-03-07T09:37:47;12.90;;;7.63;;
2564;SDS011;1292;48.020;7.822;2023-03-07T09:40:16;12.03;;;8.17;;
2564;SDS011;1292;48.020;7.822;2023-03-07T09:42:51;11.47;;;5.77;;
2564;SDS011;1292;48.020;7.822;2023-03-07T09:45:27;11.63;;;6.80;;
2564;SDS011;1292;48.020;7.822;2023-03-07T09:48:10;11.63;;;6.83;;
2564;SDS011;1292;48.020;7.822;2023-03-07T09:50:56;11.20;;;7.67;;
2564;SDS011;1292;48.020;7.822;2023-03-07T09:53:30;10.20;;;6.50;;
2564;SDS011;1292;48.020;7.822;2023-03-07T09:56:02;10.10;;;7.43;;
2564;SDS011;1292;48.020;7.822;2023-03-07T09:58:33;12.83;;;7.93;;
2564;SDS011;1292;48.020;7.822;2023-03-07T10:01:04;11.80;;;7.00;;
2564;SDS011;1292;48.020;7.822;2023-03-07T10:03:37;12.03;;;6.20;;
2564;SDS011;1292;48.020;7.822;2023-03-07T10:06:11;14.00;;;7.17;;
2564;SDS011;1292;48.020;7.822;2023-03-07T10:08:43;10.67;;;6.60;;
2564;SDS011;1292;48.020;7.822;2023-03-07T10:11:16;11.30;;;7.40;;
2564;SDS011;1292;48.020;7.822;2023-03-07T10:13:53;10.43;;;7.80;;
2564;SDS011;1292;48.020;7.822;2023-03-07T10:16:30;9.33;;;7.27;;
2564;SDS011;1292;48.020;7.822;2023-03-07T10:19:04;9.97;;;7.40;;
2564;SDS011;1292;48.020;7.822;2023-03-07T10:21:39;8.37;;;6.70;;
2564;SDS011;1292;48.020;7.822;2023-03-07T10:24:28;11.00;;;7.20;;
2564;SDS011;1292;48.020;7.822;2023-03-07T10:27:15;7.87;;;6.60;;
2564;SDS011;1292;48.020;7.822;2023-03-07T10:29:44;8.80;;;7.23;;
2564;SDS011;1292;48.020;7.822;2023-03-07T10:32:16;9.47;;;7.33;;
2564;SDS011;1292;48.020;7.822;2023-03-07T10:34:53;10.63;;;7.00;;
2564;SDS011;1292;48.020;7.822;2023-03-07T10:37:27;7.90;;;5.90;;
2564;SDS011;1292;48.020;7.822;2023-03-07T10:40:09;10.43;;;8.10;;
2564;SDS011;1292;48.020;7.822;2023-03-07T10:42:43;8.70;;;7.50;;
2564;SDS011;1292;48.020;7.822;2023-03-07T10:45:10;18.17;;;8.37;;
2564;SDS011;1292;48.020;7.822;2023-03-07T10:47:38;10.60;;;6.87;;
2564;SDS011;1292;48.020;7.822;2023-03-07T10:50:18;8.70;;;6.93;;
2564;SDS011;1292;48.020;7.822;2023-03-07T10:52:54;8.03;;;6.40;;
2564;SDS011;1292;48.020;7.822;2023-03-07T10:55:32;9.13;;;6.67;;
2564;SDS011;1292;48.020;7.822;2023-03-07T10:58:10;9.47;;;6.47;;
2564;SDS011;1292;48.020;7.822;2023-03-07T11:00:39;11.33;;;6.13;;
2564;SDS011;1292;48.020;7.822;2023-03-07T11:03:19;10.37;;;5.77;;
2564;SDS011;1292;48.020;7.822;2023-03-07T11:05:49;9.27;;;6.43;;
2564;SDS011;1292;48.020;7.822;2023-03-07T11:08:19;7.80;;;6.23;;
2564;SDS011;1292;48.020;7.822;2023-03-07T11:10:52;7.90;;;5.50;;
2564;SDS011;1292;48.020;7.822;2023-03-07T11:13:20;9.60;;;6.00;;
2564;SDS011;1292;48.020;7.822;2023-03-07T11:15:48;8.90;;;5.07;;
2564;SDS011;1292;48.020;7.822;2023-03-07T11:18:23;6.47;;;5.80;;
2564;SDS011;1292;48.020;7.822;2023-03-07T11:20:53;7.80;;;5.70;;
2564;SDS011;1292;48.020;7.822;2023-03-07T11:23:21;8.30;;;5.50;;
2564;SDS011;1292;48.020;7.822;2023-03-07T11:25:50;10.43;;;5.07;;
2564;SDS011;1292;48.020;7.822;2023-03-07T11:28:24;7.83;;;5.63;;
2564;SDS011;1292;48.020;7.822;2023-03-07T11:30:55;7.83;;;5.53;;
2564;SDS011;1292;48.020;7.822;2023-03-07T11:33:35;8.33;;;5.77;;
2564;SDS011;1292;48.020;7.822;2023-03-07T11:36:11;6.63;;;4.60;;
2564;SDS011;1292;48.020;7.822;2023-03-07T11:38:44;8.43;;;5.10;;
2564;SDS011;1292;48.020;7.822;2023-03-07T11:41:23;7.50;;;5.03;;
2564;SDS011;1292;48.020;7.822;2023-03-07T11:44:04;5.53;;;4.97;;
2564;SDS011;1292;48.020;7.822;2023-03-07T11:46:53;6.37;;;4.20;;
2564;SDS011;1292;48.020;7.822;2023-03-07T11:50:03;10.90;;;4.90;;
2564;SDS011;1292;48.020;7.822;2023-03-07T11:52:41;8.53;;;5.00;;
2564;SDS011;1292;48.020;7.822;2023-03-07T11:55:35;6.63;;;4.63;;
2564;SDS011;1292;48.020;7.822;2023-03-07T11:58:22;7.33;;;5.23;;
2564;SDS011;1292;48.020;7.822;2023-03-07T12:01:04;8.23;;;5.60;;
2564;SDS011;1292;48.020;7.822;2023-03-07T12:03:50;6.50;;;4.90;;
2564;SDS011;1292;48.020;7.822;2023-03-07T12:06:39;6.83;;;5.10;;
2564;SDS011;1292;48.020;7.822;2023-03-07T12:09:19;6.80;;;5.17;;
2564;SDS011;1292;48.020;7.822;2023-03-07T12:12:06;11.00;;;5.80;;
2564;SDS011;1292;48.020;7.822;2023-03-07T12:14:54;8.30;;;4.43;;
2564;SDS011;1292;48.020;7.822;2023-03-07T12:17:31;7.33;;;5.63;;
2564;SDS011;1292;48.020;7.822;2023-03-07T12:20:16;13.13;;;5.57;;
2564;SDS011;1292;48.020;7.822;2023-03-07T12:22:54;6.50;;;4.23;;
2564;SDS011;1292;48.020;7.822;2023-03-07T12:25:29;6.00;;;4.00;;
2564;SDS011;1292;48.020;7.822;2023-03-07T12:28:03;11.77;;;5.53;;
2564;SDS011;1292;48.020;7.822;2023-03-07T12:30:39;8.93;;;6.00;;
2564;SDS011;1292;48.020;7.822;2023-03-07T12:33:17;8.53;;;5.10;;
2564;SDS011;1292;48.020;7.822;2023-03-07T12:35:50;6.63;;;5.03;;
2564;SDS011;1292;48.020;7.822;2023-03-07T12:38:22;8.17;;;5.90;;
2564;SDS011;1292;48.020;7.822;2023-03-07T12:40:58;6.73;;;5.57;;
2564;SDS011;1292;48.020;7.822;2023-03-07T12:43:30;8.57;;;5.27;;
2564;SDS011;1292;48.020;7.822;2023-03-07T12:46:07;4.57;;;4.00;;
2564;SDS011;1292;48.020;7.822;2023-03-07T12:48:41;8.07;;;6.33;;
2564;SDS011;1292;48.020;7.822;2023-03-07T12:51:13;6.50;;;5.60;;
2564;SDS011;1292;48.020;7.822;2023-03-07T12:53:45;6.50;;;5.90;;
2564;SDS011;1292;48.020;7.822;2023-03-07T12:56:18;10.57;;;5.90;;
2564;SDS011;1292;48.020;7.822;2023-03-07T12:58:50;9.80;;;7.20;;
2564;SDS011;1292;48.020;7.822;2023-03-07T13:01:24;9.47;;;6.63;;
2564;SDS011;1292;48.020;7.822;2023-03-07T13:03:57;10.40;;;6.37;;
2564;SDS011;1292;48.020;7.822;2023-03-07T13:06:30;7.23;;;5.80;;
2564;SDS011;1292;48.020;7.822;2023-03-07T13:08:59;13.07;;;5.67;;
2564;SDS011;1292;48.020;7.822;2023-03-07T13:11:28;6.73;;;5.80;;
2564;SDS011;1292;48.020;7.822;2023-03-07T13:13:57;8.90;;;5.57;;
2564;SDS011;1292;48.020;7.822;2023-03-07T13:16:39;11.60;;;6.50;;
2564;SDS011;1292;48.020;7.822;2023-03-07T13:33:56;7.10;;;6.03;;
2564;SDS011;1292;48.020;7.822;2023-03-07T13:40:17;8.27;;;5.50;;
2564;SDS011;1292;48.020;7.822;2023-03-07T13:42:54;8.80;;;5.80;;
2564;SDS011;1292;48.020;7.822;2023-03-07T13:51:15;9.53;;;6.40;;
2564;SDS011;1292;48.020;7.822;2023-03-07T13:53:42;10.10;;;7.20;;
2564;SDS011;1292;48.020;7.822;2023-03-07T13:56:16;7.20;;;5.57;;
2564;SDS011;1292;48.020;7.822;2023-03-07T13:58:50;9.37;;;6.00;;
2564;SDS011;1292;48.020;7.822;2023-03-07T14:01:21;12.67;;;6.13;;
2564;SDS011;1292;48.020;7.822;2023-03-07T14:03:51;9.33;;;6.87;;
2564;SDS011;1292;48.020;7.822;2023-03-07T14:06:22;9.50;;;5.93;;
2564;SDS011;1292;48.020;7.822;2023-03-07T14:08:55;14.80;;;7.73;;
2564;SDS011;1292;48.020;7.822;2023-03-07T14:11:27;7.83;;;6.40;;
2564;SDS011;1292;48.020;7.822;2023-03-07T14:14:05;8.50;;;5.80;;
2564;SDS011;1292;48.020;7.822;2023-03-07T14:16:55;8.90;;;6.33;;
2564;SDS011;1292;48.020;7.822;2023-03-07T14:19:39;9.67;;;8.10;;
2564;SDS011;1292;48.020;7.822;2023-03-07T14:22:19;10.07;;;5.17;;
2564;SDS011;1292;48.020;7.822;2023-03-07T14:24:56;11.47;;;7.47;;
2564;SDS011;1292;48.020;7.822;2023-03-07T14:27:46;7.87;;;5.83;;
2564;SDS011;1292;48.020;7.822;2023-03-07T14:30:17;10.87;;;6.57;;
2564;SDS011;1292;48.020;7.822;2023-03-07T14:32:44;10.20;;;7.00;;
2564;SDS011;1292;48.020;7.822;2023-03-07T14:35:11;11.53;;;6.93;;
2564;SDS011;1292;48.020;7.822;2023-03-07T14:37:41;9.43;;;6.60;;
2564;SDS011;1292;48.020;7.822;2023-03-07T14:40:14;8.83;;;6.30;;
2564;SDS011;1292;48.020;7.822;2023-03-07T14:42:54;8.60;;;5.77;;
2564;SDS011;1292;48.020;7.822;2023-03-07T14:45:30;9.10;;;6.60;;
2564;SDS011;1292;48.020;7.822;2023-03-07T14:50:59;8.43;;;6.43;;
2564;SDS011;1292;48.020;7.822;2023-03-07T14:53:33;11.80;;;7.30;;
2564;SDS011;1292;48.020;7.822;2023-03-07T14:56:00;9.10;;;7.47;;
2564;SDS011;1292;48.020;7.822;2023-03-07T14:58:33;12.87;;;8.30;;
2564;SDS011;1292;48.020;7.822;2023-03-07T15:01:03;11.23;;;8.33;;
2564;SDS011;1292;48.020;7.822;2023-03-07T15:03:31;8.00;;;6.47;;
2564;SDS011;1292;48.020;7.822;2023-03-07T15:05:59;10.40;;;7.07;;
2564;SDS011;1292;48.020;7.822;2023-03-07T15:08:27;9.17;;;7.20;;
2564;SDS011;1292;48.020;7.822;2023-03-07T15:10:57;6.67;;;5.97;;
2564;SDS011;1292;48.020;7.822;2023-03-07T15:13:33;8.23;;;5.90;;
2564;SDS011;1292;48.020;7.822;2023-03-07T15:16:04;6.87;;;5.57;;
2564;SDS011;1292;48.020;7.822;2023-03-07T15:18:36;10.13;;;7.37;;
2564;SDS011;1292;48.020;7.822;2023-03-07T15:21:05;8.93;;;6.03;;
2564;SDS011;1292;48.020;7.822;2023-03-07T15:23:37;8.40;;;6.20;;
2564;SDS011;1292;48.020;7.822;2023-03-07T15:26:06;8.27;;;6.20;;
2564;SDS011;1292;48.020;7.822;2023-03-07T15:28:35;10.27;;;7.27;;
2564;SDS011;1292;48.020;7.822;2023-03-07T15:31:04;11.47;;;6.70;;
2564;SDS011;1292;48.020;7.822;2023-03-07T15:33:32;9.90;;;7.33;;
2564;SDS011;1292;48.020;7.822;2023-03-07T15:36:12;10.20;;;7.20;;
2564;SDS011;1292;48.020;7.822;2023-03-07T15:38:44;10.27;;;6.47;;
2564;SDS011;1292;48.020;7.822;2023-03-07T15:41:26;9.70;;;6.43;;
2564;SDS011;1292;48.020;7.822;2023-03-07T15:44:02;8.13;;;6.57;;
2564;SDS011;1292;48.020;7.822;2023-03-07T15:46:42;9.97;;;5.97;;
2564;SDS011;1292;48.020;7.822;2023-03-07T15:49:16;11.03;;;6.93;;
2564;SDS011;1292;48.020;7.822;2023-03-07T15:51:45;10.47;;;5.47;;
2564;SDS011;1292;48.020;7.822;2023-03-07T15:54:18;7.80;;;5.47;;
2564;SDS011;1292;48.020;7.822;2023-03-07T15:56:56;13.30;;;6.60;;
2564;SDS011;1292;48.020;7.822;2023-03-07T15:59:26;10.30;;;6.20;;
2564;SDS011;1292;48.020;7.822;2023-03-07T16:01:56;13.97;;;7.80;;
2564;SDS011;1292;48.020;7.822;2023-03-07T16:04:43;11.80;;;8.33;;
2564;SDS011;1292;48.020;7.822;2023-03-07T16:07:14;19.37;;;10.13;;
2564;SDS011;1292;48.020;7.822;2023-03-07T16:09:41;8.73;;;6.50;;
2564;SDS011;1292;48.020;7.822;2023-03-07T16:12:11;15.57;;;7.10;;
2564;SDS011;1292;48.020;7.822;2023-03-07T16:14:39;12.03;;;7.43;;
2564;SDS011;1292;48.020;7.822;2023-03-07T16:17:09;12.80;;;6.53;;
2564;SDS011;1292;48.020;7.822;2023-03-07T16:19:42;8.70;;;6.40;;
2564;SDS011;1292;48.020;7.822;2023-03-07T16:22:08;9.93;;;6.13;;
2564;SDS011;1292;48.020;7.822;2023-03-07T16:24:39;9.80;;;6.70;;
2564;SDS011;1292;48.020;7.822;2023-03-07T16:27:07;10.63;;;7.03;;
2564;SDS011;1292;48.020;7.822;2023-03-07T16:29:38;11.67;;;7.37;;
2564;SDS011;1292;48.020;7.822;2023-03-07T16:32:07;10.10;;;6.37;;
2564;SDS011;1292;48.020;7.822;2023-03-07T16:34:35;8.87;;;6.07;;
2564;SDS011;1292;48.020;7.822;2023-03-07T16:37:02;9.10;;;5.80;;
2564;SDS011;1292;48.020;7.822;2023-03-07T16:39:29;10.03;;;6.50;;
2564;SDS011;1292;48.020;7.822;2023-03-07T16:41:56;9.07;;;5.90;;
2564;SDS011;1292;48.020;7.822;2023-03-07T16:44:25;8.80;;;6.27;;
2564;SDS011;1292;48.020;7.822;2023-03-07T16:46:54;14.73;;;6.23;;
2564;SDS011;1292;48.020;7.822;2023-03-07T16:49:23;8.40;;;5.40;;
2564;SDS011;1292;48.020;7.822;2023-03-07T16:51:50;9.17;;;5.37;;
2564;SDS011;1292;48.020;7.822;2023-03-07T16:54:17;9.17;;;6.13;;
2564;SDS011;1292;48.020;7.822;2023-03-07T16:56:44;6.80;;;5.27;;
2564;SDS011;1292;48.020;7.822;2023-03-07T16:59:14;6.43;;;4.80;;
2564;SDS011;1292;48.020;7.822;2023-03-07T17:01:45;7.07;;;5.10;;
2564;SDS011;1292;48.020;7.822;2023-03-07T17:04:13;8.90;;;5.93;;
2564;SDS011;1292;48.020;7.822;2023-03-07T17:06:40;10.77;;;5.30;;
2564;SDS011;1292;48.020;7.822;2023-03-07T17:09:08;8.97;;;5.80;;
2564;SDS011;1292;48.020;7.822;2023-03-07T17:11:36;9.47;;;6.30;;
2564;SDS011;1292;48.020;7.822;2023-03-07T17:14:06;12.57;;;7.03;;
2564;SDS011;1292;48.020;7.822;2023-03-07T17:16:33;15.13;;;6.40;;
2564;SDS011;1292;48.020;7.822;2023-03-07T17:19:03;10.20;;;6.03;;
2564;SDS011;1292;48.020;7.822;2023-03-07T17:21:30;8.80;;;7.13;;
2564;SDS011;1292;48.020;7.822;2023-03-07T17:23:57;13.00;;;7.10;;
2564;SDS011;1292;48.020;7.822;2023-03-07T17:26:25;8.93;;;7.23;;
2564;SDS011;1292;48.020;7.822;2023-03-07T17:28:54;7.70;;;5.77;;
2564;SDS011;1292;48.020;7.822;2023-03-07T17:31:25;11.57;;;7.17;;
2564;SDS011;1292;48.020;7.822;2023-03-07T17:33:52;10.10;;;6.17;;
2564;SDS011;1292;48.020;7.822;2023-03-07T17:36:20;10.53;;;7.07;;
2564;SDS011;1292;48.020;7.822;2023-03-07T17:38:47;9.53;;;6.37;;
2564;SDS011;1292;48.020;7.822;2023-03-07T17:41:14;8.30;;;6.23;;
2564;SDS011;1292;48.020;7.822;2023-03-07T17:43:41;8.77;;;6.57;;
2564;SDS011;1292;48.020;7.822;2023-03-07T17:48:36;12.30;;;7.17;;
2564;SDS011;1292;48.020;7.822;2023-03-07T17:51:05;10.00;;;6.57;;
2564;SDS011;1292;48.020;7.822;2023-03-07T17:53:35;10.57;;;7.50;;
2564;SDS011;1292;48.020;7.822;2023-03-07T17:56:05;7.53;;;6.73;;
2564;SDS011;1292;48.020;7.822;2023-03-07T17:58:33;8.90;;;6.53;;
2564;SDS011;1292;48.020;7.822;2023-03-07T18:01:01;9.43;;;6.50;;
2564;SDS011;1292;48.020;7.822;2023-03-07T18:03:28;10.10;;;7.70;;
2564;SDS011;1292;48.020;7.822;2023-03-07T18:05:55;7.60;;;6.27;;
2564;SDS011;1292;48.020;7.822;2023-03-07T18:08:23;10.57;;;6.03;;
2564;SDS011;1292;48.020;7.822;2023-03-07T18:10:51;10.00;;;7.03;;
2564;SDS011;1292;48.020;7.822;2023-03-07T18:13:18;9.40;;;6.50;;
2564;SDS011;1292;48.020;7.822;2023-03-07T18:15:48;9.90;;;8.40;;
2564;SDS011;1292;48.020;7.822;2023-03-07T18:18:15;16.60;;;9.23;;
2564;SDS011;1292;48.020;7.822;2023-03-07T18:20:41;14.73;;;9.10;;
2564;SDS011;1292;48.020;7.822;2023-03-07T18:23:08;13.83;;;8.60;;
2564;SDS011;1292;48.020;7.822;2023-03-07T18:25:35;11.00;;;7.83;;
2564;SDS011;1292;48.020;7.822;2023-03-07T18:28:04;10.67;;;8.27;;
2564;SDS011;1292;48.020;7.822;2023-03-07T18:30:30;10.10;;;7.00;;
2564;SDS011;1292;48.020;7.822;2023-03-07T18:32:58;11.90;;;7.10;;
2564;SDS011;1292;48.020;7.822;2023-03-07T18:35:24;10.70;;;7.00;;
2564;SDS011;1292;48.020;7.822;2023-03-07T18:37:51;9.10;;;6.60;;
2564;SDS011;1292;48.020;7.822;2023-03-07T18:40:18;10.90;;;7.43;;
2564;SDS011;1292;48.020;7.822;2023-03-07T18:42:46;8.57;;;6.63;;
2564;SDS011;1292;48.020;7.822;2023-03-07T18:45:15;9.97;;;7.20;;
2564;SDS011;1292;48.020;7.822;2023-03-07T18:47:41;12.00;;;7.13;;
2564;SDS011;1292;48.020;7.822;2023-03-07T18:50:09;9.17;;;6.37;;
2564;SDS011;1292;48.020;7.822;2023-03-07T18:52:36;9.73;;;5.77;;
2564;SDS011;1292;48.020;7.822;2023-03-07T18:55:03;10.03;;;6.97;;
2564;SDS011;1292;48.020;7.822;2023-03-07T18:57:31;12.33;;;9.07;;
2564;SDS011;1292;48.020;7.822;2023-03-07T18:59:57;14.90;;;9.43;;
2564;SDS011;1292;48.020;7.822;2023-03-07T19:02:26;18.63;;;11.07;;
2564;SDS011;1292;48.020;7.822;2023-03-07T19:04:53;15.43;;;10.10;;
2564;SDS011;1292;48.020;7.822;2023-03-07T19:07:19;10.37;;;7.87;;
2564;SDS011;1292;48.020;7.822;2023-03-07T19:09:47;13.70;;;7.83;;
2564;SDS011;1292;48.020;7.822;2023-03-07T19:12:17;14.80;;;8.10;;
2564;SDS011;1292;48.020;7.822;2023-03-07T19:14:44;14.73;;;8.67;;
2564;SDS011;1292;48.020;7.822;2023-03-07T19:17:11;9.67;;;7.43;;
2564;SDS011;1292;48.020;7.822;2023-03-07T19:19:39;13.47;;;11.93;;
2564;SDS011;1292;48.020;7.822;2023-03-07T19:22:06;14.00;;;10.40;;
2564;SDS011;1292;48.020;7.822;2023-03-07T19:24:34;14.20;;;8.37;;
2564;SDS011;1292;48.020;7.822;2023-03-07T19:27:01;13.77;;;9.80;;
2564;SDS011;1292;48.020;7.822;2023-03-07T19:29:28;15.43;;;8.03;;
2564;SDS011;1292;48.020;7.822;2023-03-07T19:31:55;9.80;;;7.30;;
2564;SDS011;1292;48.020;7.822;2023-03-07T19:34:22;11.60;;;9.03;;
2564;SDS011;1292;48.020;7.822;2023-03-07T19:36:50;15.10;;;7.90;;
2564;SDS011;1292;48.020;7.822;2023-03-07T19:39:17;14.83;;;8.83;;
2564;SDS011;1292;48.020;7.822;2023-03-07T19:41:45;16.83;;;9.20;;
2564;SDS011;1292;48.020;7.822;2023-03-07T19:44:13;15.07;;;8.23;;
2564;SDS011;1292;48.020;7.822;2023-03-07T19:46:40;10.90;;;7.80;;
2564;SDS011;1292;48.020;7.822;2023-03-07T19:49:10;16.03;;;10.30;;
2564;SDS011;1292;48.020;7.822;2023-03-07T19:51:37;16.27;;;11.30;;
2564;SDS011;1292;48.020;7.822;2023-03-07T19:54:05;14.47;;;11.07;;
2564;SDS011;1292;48.020;7.822;2023-03-07T19:56:33;18.10;;;11.47;;
2564;SDS011;1292;48.020;7.822;2023-03-07T19:59:03;16.50;;;9.90;;
2564;SDS011;1292;48.020;7.822;2023-03-07T20:01:31;13.03;;;9.03;;
2564;SDS011;1292;48.020;7.822;2023-03-07T20:03:58;11.20;;;9.00;;
2564;SDS011;1292;48.020;7.822;2023-03-07T20:06:26;14.90;;;8.33;;
2564;SDS011;1292;48.020;7.822;2023-03-07T20:08:55;11.30;;;7.40;;
2564;SDS011;1292;48.020;7.822;2023-03-07T20:11:24;11.20;;;7.90;;
2564;SDS011;1292;48.020;7.822;2023-03-07T20:13:52;10.60;;;8.13;;
2564;SDS011;1292;48.020;7.822;2023-03-07T20:16:21;12.40;;;7.73;;
2564;SDS011;1292;48.020;7.822;2023-03-07T20:18:48;10.97;;;7.83;;
2564;SDS011;1292;48.020;7.822;2023-03-07T20:21:16;11.53;;;7.87;;
2564;SDS011;1292;48.020;7.822;2023-03-07T20:23:44;11.23;;;8.00;;
2564;SDS011;1292;48.020;7.822;2023-03-07T20:26:12;11.97;;;8.40;;
2564;SDS011;1292;48.020;7.822;2023-03-07T20:28:42;10.80;;;7.90;;
2564;SDS011;1292;48.020;7.822;2023-03-07T20:31:09;11.53;;;8.03;;
2564;SDS011;1292;48.020;7.822;2023-03-07T20:33:37;14.07;;;9.33;;
2564;SDS011;1292;48.020;7.822;2023-03-07T20:36:07;12.80;;;7.87;;
2564;SDS011;1292;48.020;7.822;2023-03-07T20:38:38;19.50;;;8.77;;
2564;SDS011;1292;48.020;7.822;2023-03-07T20:41:05;13.10;;;8.50;;
2564;SDS011;1292;48.020;7.822;2023-03-07T20:43:33;12.20;;;8.83;;
2564;SDS011;1292;48.020;7.822;2023-03-07T20:46:02;12.20;;;8.00;;
2564;SDS011;1292;48.020;7.822;2023-03-07T20:48:29;14.00;;;9.17;;
2564;SDS011;1292;48.020;7.822;2023-03-07T20:51:01;11.80;;;7.97;;
2564;SDS011;1292;48.020;7.822;2023-03-07T20:53:29;11.50;;;8.40;;
2564;SDS011;1292;48.020;7.822;2023-03-07T20:55:59;14.13;;;8.63;;
2564;SDS011;1292;48.020;7.822;2023-03-07T20:58:26;14.80;;;9.93;;
2564;SDS011;1292;48.020;7.822;2023-03-07T21:00:54;13.20;;;8.03;;
2564;SDS011;1292;48.020;7.822;2023-03-07T21:03:23;10.53;;;8.50;;
2564;SDS011;1292;48.020;7.822;2023-03-07T21:05:51;13.57;;;8.80;;
2564;SDS011;1292;48.020;7.822;2023-03-07T21:08:18;15.97;;;10.57;;
2564;SDS011;1292;48.020;7.822;2023-03-07T21:10:45;12.70;;;7.50;;
2564;SDS011;1292;48.020;7.822;2023-03-07T21:13:12;15.17;;;8.73;;
2564;SDS011;1292;48.020;7.822;2023-03-07T21:15:39;12.87;;;8.93;;
2564;SDS011;1292;48.020;7.822;2023-03-07T21:18:07;14.10;;;8.40;;
2564;SDS011;1292;48.020;7.822;2023-03-07T21:20:38;13.77;;;8.37;;
2564;SDS011;1292;48.020;7.822;2023-03-07T21:23:05;13.13;;;9.83;;
2564;SDS011;1292;48.020;7.822;2023-03-07T21:25:32;15.03;;;9.70;;
2564;SDS011;1292;48.020;7.822;2023-03-07T21:27:59;22.30;;;11.30;;
2564;SDS011;1292;48.020;7.822;2023-03-07T21:30:26;14.10;;;9.00;;
2564;SDS011;1292;48.020;7.822;2023-03-07T21:32:54;13.70;;;8.20;;
2564;SDS011;1292;48.020;7.822;2023-03-07T21:35:21;13.43;;;8.67;;
2564;SDS011;1292;48.020;7.822;2023-03-07T21:37:50;14.50;;;8.60;;
2564;SDS011;1292;48.020;7.822;2023-03-07T21:40:17;11.50;;;8.80;;
2564;SDS011;1292;48.020;7.822;2023-03-07T21:42:44;14.80;;;8.70;;
2564;SDS011;1292;48.020;7.822;2023-03-07T21:45:11;10.97;;;8.33;;
2564;SDS011;1292;48.020;7.822;2023-03-07T21:47:38;11.90;;;8.53;;
2564;SDS011;1292;48.020;7.822;2023-03-07T21:50:06;13.27;;;9.03;;
2564;SDS011;1292;48.020;7.822;2023-03-07T21:52:34;13.37;;;8.50;;
2564;SDS011;1292;48.020;7.822;2023-03-07T21:55:02;14.67;;;9.60;;
2564;SDS011;1292;48.020;7.822;2023-03-07T21:57:30;14.87;;;10.10;;
2564;SDS011;1292;48.020;7.822;2023-03-07T21:59:56;14.80;;;10.17;;
